Meloi — 3FOD — position and weather

sailwx.info

Track history (hours):
 
Tides and Currents Weather Stations Pressure Air Temp Water Temp Dewpoint Dewpoint Depression Visibility Wind Speed Wind Dir Waves Ship Positions

Meloi

Last reported at 2018-Feb-23 05:55 UTC. Time now 2018-Apr-23 11:54 UTC.
Position N 29°06' W 093°38'.
Warning: this ship's position is 59 days out of date.

Length 180 m; draft 9.3 m.

Type: Cargo ship. MMSI: 351132000.

Date/timePositionNaut miles runAvg speedWind from/ knotsBaromVisibWave heightAir tempDewpointWater temp
2018-Feb-23 05:55N 29°06' W 093°38'510.9
2018-Feb-23 05:30N 29°10' W 093°40'711.2
2018-Feb-23 04:54N 29°17' W 093°40'411.2
2018-Feb-23 04:30N 29°21' W 093°40'610.2
2018-Feb-23 03:57N 29°27' W 093°40'4 9.6
2018-Feb-23 03:30N 29°31' W 093°42'510.5
2018-Feb-23 03:00N 29°34' W 093°46'4 7.1
2018-Feb-23 02:30N 29°37' W 093°49'5 9.7
2018-Feb-23 02:00N 29°42' W 093°51'4 8.3
2018-Feb-23 01:31N 29°45' W 093°53'4 8.4
2018-Feb-23 01:00N 29°48' W 093°57'4 7.2
2018-Feb-23 00:30N 29°51' W 093°57'4 7.4
2018-Feb-23 00:00N 29°54' W 093°54'3 6.4
2018-Feb-22 23:30N 29°57' W 093°52'2 4.9
2018-Feb-22 23:00N 29°59' W 093°53'0 0.1
2018-Feb-22 22:30N 29°59' W 093°53'0 0.0
2018-Feb-22 22:00N 29°59' W 093°53'0 0.0
2018-Feb-22 21:30N 29°59' W 093°53'0 0.0
2018-Feb-22 21:00N 29°59' W 093°53'0 0.0
2018-Feb-22 20:30N 29°59' W 093°53'0 0.0
2018-Feb-22 20:00N 29°59' W 093°53'0 0.0
2018-Feb-22 19:30N 29°59' W 093°53'0 0.0
2018-Feb-22 19:00N 29°59' W 093°53'0 0.0
2018-Feb-22 18:30N 29°59' W 093°53'0 0.0
2018-Feb-22 18:00N 29°59' W 093°53'0 0.0
2018-Feb-22 17:30N 29°59' W 093°53'0 0.0
2018-Feb-22 17:00N 29°59' W 093°53'0 0.0
2018-Feb-22 16:30N 29°59' W 093°53'0 0.0
2018-Feb-22 16:00N 29°59' W 093°53'0 0.0
2018-Feb-22 15:30N 29°59' W 093°53'0 0.0
2018-Feb-22 15:00N 29°59' W 093°53'0 0.0
2018-Feb-22 14:30N 29°59' W 093°53'0 0.0
2018-Feb-22 14:00N 29°59' W 093°53'0 0.0
2018-Feb-22 13:30N 29°59' W 093°53'0 0.0
2018-Feb-22 13:00N 29°59' W 093°53'0 0.0
2018-Feb-22 12:30N 29°59' W 093°53'0 0.0
2018-Feb-22 12:00N 29°59' W 093°53'0 0.0
2018-Feb-22 11:30N 29°59' W 093°53'0 0.0
2018-Feb-22 11:00N 29°59' W 093°53'0 0.0
2018-Feb-22 10:30N 29°59' W 093°53'0 0.0
2018-Feb-22 10:00N 29°59' W 093°53'0 0.0
2018-Feb-22 09:30N 29°59' W 093°53'0 0.0
2018-Feb-22 09:00N 29°59' W 093°53'0 0.0
2018-Feb-22 08:30N 29°59' W 093°53'0 0.0
2018-Feb-22 08:00N 29°59' W 093°53'0 0.0
2018-Feb-22 07:30N 29°59' W 093°53'0 0.0
2018-Feb-22 07:00N 29°59' W 093°53'0 0.0
2018-Feb-22 06:30N 29°59' W 093°53'0 0.0
2018-Feb-22 06:00N 29°59' W 093°53'0 0.0
2018-Feb-22 05:30N 29°59' W 093°53'0 0.0
2018-Feb-22 05:00N 29°59' W 093°53'0 0.0
2018-Feb-22 04:30N 29°59' W 093°53'0 0.0
2018-Feb-22 04:00N 29°59' W 093°53'0 0.0
2018-Feb-22 03:30N 29°59' W 093°53'0 0.0
2018-Feb-22 03:00N 29°59' W 093°53'0 0.0
2018-Feb-22 02:27N 29°59' W 093°53'0 0.0
2018-Feb-22 02:00N 29°59' W 093°53'0 0.0
2018-Feb-22 01:30N 29°59' W 093°53'0 0.0
2018-Feb-22 01:00N 29°59' W 093°53'0 0.0
2018-Feb-22 00:30N 29°59' W 093°53'0 0.0
2018-Feb-22 00:00N 29°59' W 093°53'0 0.0
2018-Feb-21 23:30N 29°59' W 093°53'0 0.0
2018-Feb-21 23:00N 29°59' W 093°53'0 0.0
2018-Feb-21 22:30N 29°59' W 093°53'0 0.0
2018-Feb-21 22:00N 29°59' W 093°53'0 0.0
2018-Feb-21 21:30N 29°59' W 093°53'0 0.0
2018-Feb-21 21:00N 29°59' W 093°53'0 0.0
2018-Feb-21 20:30N 29°59' W 093°53'0 0.0
2018-Feb-21 20:00N 29°59' W 093°53'0 0.0
2018-Feb-21 19:30N 29°59' W 093°53'0 0.0
2018-Feb-21 19:00N 29°59' W 093°53'0 0.0
2018-Feb-21 18:30N 29°59' W 093°53'0 0.0
2018-Feb-21 18:00N 29°59' W 093°53'0 0.0
2018-Feb-21 17:30N 29°59' W 093°53'0 0.0
2018-Feb-21 17:00N 29°59' W 093°53'0 0.0
2018-Feb-21 16:30N 29°59' W 093°53'0 0.0
2018-Feb-21 16:00N 29°59' W 093°53'0 0.0
2018-Feb-21 15:30N 29°59' W 093°53'0 0.0
2018-Feb-21 15:00N 29°59' W 093°53'0 0.0
2018-Feb-21 14:30N 29°59' W 093°53'0 0.0
2018-Feb-21 14:00N 29°59' W 093°53'0 0.0
2018-Feb-21 13:30N 29°59' W 093°53'0 0.0
2018-Feb-21 13:00N 29°59' W 093°53'0 0.0
2018-Feb-21 12:30N 29°59' W 093°53'0 0.0
2018-Feb-21 12:00N 29°59' W 093°53'0 0.0
2018-Feb-21 11:30N 29°59' W 093°53'0 0.0
2018-Feb-21 11:00N 29°59' W 093°53'0 0.0
2018-Feb-21 10:30N 29°59' W 093°53'0 0.0
2018-Feb-21 10:00N 29°59' W 093°53'0 0.0
2018-Feb-21 09:30N 29°59' W 093°53'0 0.0
2018-Feb-21 09:00N 29°59' W 093°53'0 0.0
2018-Feb-21 08:30N 29°59' W 093°53'0 0.0
2018-Feb-21 08:00N 29°59' W 093°53'0 0.0
2018-Feb-21 07:30N 29°59' W 093°53'0 0.0
2018-Feb-21 07:00N 29°59' W 093°53'0 0.0
2018-Feb-21 06:30N 29°59' W 093°53'0 0.0
2018-Feb-21 06:00N 29°59' W 093°53'0 0.0
2018-Feb-21 05:30N 29°59' W 093°53'0 0.0
2018-Feb-21 05:00N 29°59' W 093°53'0 0.0
2018-Feb-21 04:30N 29°59' W 093°53'0 0.0
2018-Feb-21 04:00N 29°59' W 093°53'0 0.0
2018-Feb-21 03:27N 29°59' W 093°53'0 0.0
2018-Feb-21 03:00N 29°59' W 093°53'0 0.0
2018-Feb-21 02:27N 29°59' W 093°53'0 0.0
2018-Feb-21 02:00N 29°59' W 093°53'0 0.0
2018-Feb-21 01:30N 29°59' W 093°53'0 0.0
2018-Feb-21 01:00N 29°59' W 093°53'0 0.0
2018-Feb-21 00:30N 29°59' W 093°53'0 0.0
2018-Feb-21 00:00N 29°59' W 093°53'0 0.0
2018-Feb-20 23:30N 29°59' W 093°53'0 0.0
2018-Feb-20 23:00N 29°59' W 093°53'0 0.0
2018-Feb-20 22:30N 29°59' W 093°53'0 0.0
2018-Feb-20 22:00N 29°59' W 093°53'0 0.0
2018-Feb-20 21:30N 29°59' W 093°53'0 0.1
2018-Feb-20 21:00N 29°59' W 093°53'0 0.1
2018-Feb-20 20:30N 29°59' W 093°53'0 0.0
2018-Feb-20 20:00N 29°59' W 093°53'0 0.0
2018-Feb-20 19:30N 29°59' W 093°53'0 0.0
2018-Feb-20 19:00N 29°59' W 093°53'0 0.0
2018-Feb-20 18:30N 29°59' W 093°53'0 0.0
2018-Feb-20 18:00N 29°59' W 093°53'0 0.0
2018-Feb-20 17:30N 29°59' W 093°53'0 0.0
2018-Feb-20 17:00N 29°59' W 093°53'0 0.0
2018-Feb-20 16:30N 29°59' W 093°53'0 0.0
2018-Feb-20 16:00N 29°59' W 093°53'0 0.0
2018-Feb-20 15:30N 29°59' W 093°53'0 0.1
2018-Feb-20 15:00N 29°59' W 093°53'0 0.1
2018-Feb-20 14:30N 29°59' W 093°53'0 0.0
2018-Feb-20 14:00N 29°59' W 093°53'0 0.0
2018-Feb-20 13:30N 29°59' W 093°53'0 0.0
2018-Feb-20 13:00N 29°59' W 093°53'0 0.0
2018-Feb-20 12:30N 29°59' W 093°53'0 0.0
2018-Feb-20 12:00N 29°59' W 093°53'0 0.0
2018-Feb-20 11:30N 29°59' W 093°53'0 0.0
2018-Feb-20 11:00N 29°59' W 093°53'0 0.0
2018-Feb-20 10:30N 29°59' W 093°53'0 0.0
2018-Feb-20 10:00N 29°59' W 093°53'0 0.0
2018-Feb-20 09:30N 29°59' W 093°53'0 0.0
2018-Feb-20 09:00N 29°59' W 093°53'0 0.0
2018-Feb-20 08:30N 29°59' W 093°53'0 0.0
2018-Feb-20 08:00N 29°59' W 093°53'0 0.0
2018-Feb-20 07:30N 29°59' W 093°53'0 0.0
2018-Feb-20 07:00N 29°59' W 093°53'0 0.2
2018-Feb-20 06:31N 29°59' W 093°53'2 4.5
2018-Feb-20 06:00N 29°57' W 093°52'4 7.2
2018-Feb-20 05:30N 29°54' W 093°54'4 8.2
2018-Feb-20 05:00N 29°51' W 093°57'4 7.4
2018-Feb-20 04:31N 29°47' W 093°57'4 8.5
2018-Feb-20 04:00N 29°45' W 093°53'4 7.5
2018-Feb-20 03:30N 29°42' W 093°50'510.8
2018-Feb-20 03:00N 29°36' W 093°48'713.0
2018-Feb-20 02:30N 29°32' W 093°43'612.3
2018-Feb-20 02:01N 29°27' W 093°40'3 6.2
2018-Feb-20 01:28N 29°24' W 093°42'1 1.9
2018-Feb-20 00:58N 29°25' W 093°43'0 0.0
2018-Feb-20 00:19N 29°25' W 093°43'0 0.0
2018-Feb-19 22:37N 29°25' W 093°43'0 0.0
2018-Feb-19 22:28N 29°25' W 093°43'0 0.0
2018-Feb-19 20:28N 29°25' W 093°43'0 0.0
2018-Feb-19 19:55N 29°25' W 093°43'0 0.0
2018-Feb-19 18:37N 29°25' W 093°43'0 0.0
2018-Feb-19 18:22N 29°25' W 093°43'0 0.0
2018-Feb-19 17:55N 29°25' W 093°43'0 0.0
2018-Feb-19 17:28N 29°25' W 093°43'0 0.0
2018-Feb-19 16:58N 29°25' W 093°43'0 0.0
2018-Feb-19 16:25N 29°25' W 093°43'0 0.0
2018-Feb-19 15:58N 29°25' W 093°43'0 0.0
2018-Feb-19 15:28N 29°25' W 093°43'0 0.0
2018-Feb-19 14:58N 29°25' W 093°43'0 0.0
2018-Feb-19 14:28N 29°25' W 093°43'0 0.0
2018-Feb-19 13:58N 29°25' W 093°43'0 0.0
2018-Feb-19 13:28N 29°25' W 093°43'0 0.0
2018-Feb-19 12:58N 29°25' W 093°43'0 0.0
2018-Feb-19 12:28N 29°25' W 093°43'0 0.0
2018-Feb-19 11:55N 29°25' W 093°43'0 0.0
2018-Feb-19 11:28N 29°25' W 093°43'0 0.0
2018-Feb-19 10:55N 29°25' W 093°43'0 0.0
2018-Feb-19 10:28N 29°25' W 093°43'0 0.0
2018-Feb-19 09:49N 29°25' W 093°43'0 0.0
2018-Feb-19 09:28N 29°25' W 093°43'0 0.0
2018-Feb-19 08:49N 29°25' W 093°43'0 0.0
2018-Feb-19 08:25N 29°25' W 093°43'0 0.0
2018-Feb-19 07:58N 29°25' W 093°43'0 0.0
2018-Feb-19 07:28N 29°25' W 093°43'0 0.0
2018-Feb-19 06:55N 29°25' W 093°43'0 0.0
2018-Feb-19 06:28N 29°25' W 093°43'0 0.0
2018-Feb-19 05:16N 29°25' W 093°43'0 0.0
2018-Feb-19 04:07N 29°25' W 093°43'0 0.0
2018-Feb-19 03:52N 29°25' W 093°43'0 0.0
2018-Feb-19 01:10N 29°25' W 093°43'0 0.0
2018-Feb-19 00:40N 29°25' W 093°43'0 0.0
2018-Feb-19 00:25N 29°25' W 093°43'0 0.0
2018-Feb-18 23:55N 29°25' W 093°43'0 0.0
2018-Feb-18 23:28N 29°25' W 093°43'0 0.0
2018-Feb-18 17:22N 29°25' W 093°43'0 0.0
2018-Feb-18 16:55N 29°24' W 093°43'0 0.1
2018-Feb-18 16:16N 29°25' W 093°43'0 0.0
2018-Feb-18 15:40N 29°25' W 093°43'0 0.0
2018-Feb-18 11:10N 29°25' W 093°43'0 0.0
2018-Feb-18 10:40N 29°25' W 093°43'0 0.0
2018-Feb-18 10:13N 29°25' W 093°43'0 0.1
2018-Feb-18 09:58N 29°25' W 093°43'0 0.0
2018-Feb-18 09:25N 29°25' W 093°43'0 0.0
2018-Feb-18 08:58N 29°25' W 093°43'0 0.0
2018-Feb-18 08:28N 29°25' W 093°43'0 0.0
2018-Feb-18 07:58N 29°25' W 093°43'0 0.0
2018-Feb-18 07:28N 29°25' W 093°43'0 0.0
2018-Feb-18 06:58N 29°25' W 093°43'0 0.0
2018-Feb-18 06:28N 29°25' W 093°43'0 0.0
2018-Feb-18 05:58N 29°25' W 093°43'0 0.0
2018-Feb-18 00:41N 29°25' W 093°43'0 0.0
2018-Feb-18 00:23N 29°25' W 093°43'0 0.0
2018-Feb-17 21:05N 29°25' W 093°43'0 0.1
2018-Feb-17 20:59N 29°25' W 093°43'0 0.0
2018-Feb-17 20:29N 29°25' W 093°43'0 0.0
2018-Feb-17 19:59N 29°25' W 093°43'0 0.0
2018-Feb-17 17:47N 29°25' W 093°43'0 0.0
2018-Feb-17 16:50N 29°24' W 093°43'0 0.0
2018-Feb-17 16:26N 29°24' W 093°43'0 0.0
2018-Feb-17 15:29N 29°24' W 093°43'0 0.0
2018-Feb-17 14:56N 29°24' W 093°43'0 0.0
2018-Feb-17 10:23N 29°25' W 093°43'0 0.0
2018-Feb-17 07:47N 29°25' W 093°43'0 0.0
2018-Feb-17 07:23N 29°25' W 093°43'0 0.0
2018-Feb-17 06:50N 29°25' W 093°43'0 0.0
2018-Feb-17 06:17N 29°25' W 093°43'0 0.0
2018-Feb-17 05:08N 29°25' W 093°43'0 0.0
2018-Feb-17 04:38N 29°25' W 093°43'0 0.1
2018-Feb-17 04:29N 29°25' W 093°43'0 0.0
2018-Feb-17 02:05N 29°25' W 093°43'0 0.1
2018-Feb-17 01:59N 29°25' W 093°43'0 0.0
2018-Feb-17 01:23N 29°25' W 093°43'0 0.1
2018-Feb-17 00:47N 29°25' W 093°43'0 0.1
2018-Feb-17 00:29N 29°25' W 093°43'0 0.0
2018-Feb-16 23:59N 29°25' W 093°43'0 0.0
2018-Feb-16 23:20N 29°25' W 093°43'0 0.0
2018-Feb-16 22:50N 29°25' W 093°43'0 0.0
2018-Feb-16 22:29N 29°25' W 093°43'0 0.0
2018-Feb-16 21:59N 29°25' W 093°43'0 0.0
2018-Feb-16 21:29N 29°25' W 093°43'0 0.0
2018-Feb-16 18:11N 29°25' W 093°43'0 0.0
2018-Feb-16 17:47N 29°25' W 093°43'0 0.0
2018-Feb-16 17:02N 29°25' W 093°43'0 0.0
2018-Feb-16 16:59N 29°25' W 093°43'0 0.0
2018-Feb-16 16:20N 29°25' W 093°43'0 0.0
2018-Feb-16 15:50N 29°25' W 093°43'0 0.0
2018-Feb-16 15:29N 29°25' W 093°43'0 0.0
2018-Feb-16 14:59N 29°25' W 093°43'7517.6
2018-Feb-16 10:43N 29°45' W 095°06'7536.5
2018-Feb-16 08:40N 29°25' W 093°43'0 0.0
2018-Feb-16 08:30N 29°25' W 093°43'0 0.1
2018-Feb-16 07:45N 29°25' W 093°43'1 2.6
2018-Feb-16 07:24N 29°24' W 093°42'4 9.1
2018-Feb-16 07:00N 29°21' W 093°40'713.9
2018-Feb-16 06:28N 29°14' W 093°39'613.2
2018-Feb-16 06:00N 29°08' W 093°43'713.6
2018-Feb-16 05:30N 29°05' W 093°50'713.4
2018-Feb-16 05:00N 29°05' W 093°57'713.5
2018-Feb-16 04:30N 29°04' W 094°05'713.5
2018-Feb-16 04:00N 29°05' W 094°13'613.0
2018-Feb-16 03:30N 29°06' W 094°20'712.8
2018-Feb-16 03:00N 29°09' W 094°27'713.0
2018-Feb-16 02:29N 29°14' W 094°32'611.7
2018-Feb-16 02:00N 29°18' W 094°37'5 9.2
2018-Feb-16 01:31N 29°20' W 094°41'5 9.2
2018-Feb-16 01:01N 29°21' W 094°46'4 8.2
2018-Feb-16 00:29N 29°24' W 094°49'4 8.3
2018-Feb-16 00:01N 29°28' W 094°51'5 8.8
2018-Feb-15 23:27N 29°32' W 094°54'5 9.3
2018-Feb-15 22:56N 29°36' W 094°57'4 9.2
2018-Feb-15 22:27N 29°40' W 094°59'16 5.6
2018-Feb-15 19:36N 29°44' W 095°17'1 0.3
2018-Feb-15 16:38N 29°45' W 095°17'0 0.0
2018-Feb-15 16:23N 29°45' W 095°17'0 0.0
2018-Feb-15 14:53N 29°45' W 095°17'0 0.0
2018-Feb-15 12:44N 29°45' W 095°17'0 0.0
2018-Feb-15 10:08N 29°45' W 095°17'0 0.0
2018-Feb-15 09:41N 29°45' W 095°17'0 0.0
2018-Feb-15 09:29N 29°45' W 095°17'0 0.0
2018-Feb-15 08:23N 29°45' W 095°17'0 0.0
2018-Feb-15 07:47N 29°45' W 095°17'0 0.0
2018-Feb-15 07:29N 29°45' W 095°17'0 0.0
2018-Feb-15 06:59N 29°45' W 095°17'0 0.0
2018-Feb-15 06:23N 29°45' W 095°17'0 0.0
2018-Feb-15 05:56N 29°45' W 095°17'0 0.0
2018-Feb-15 05:29N 29°45' W 095°17'0 0.0
2018-Feb-15 04:50N 29°45' W 095°17'0 0.0
2018-Feb-15 04:26N 29°45' W 095°17'0 0.0
2018-Feb-15 03:59N 29°45' W 095°17'0 0.0
2018-Feb-15 03:20N 29°45' W 095°17'0 0.0
2018-Feb-15 02:56N 29°45' W 095°17'0 0.0
2018-Feb-15 02:23N 29°45' W 095°17'0 0.0
2018-Feb-14 22:11N 29°45' W 095°17'0 0.0
2018-Feb-14 21:59N 29°45' W 095°17'0 0.0
2018-Feb-14 21:29N 29°45' W 095°17'0 0.0
2018-Feb-14 18:47N 29°45' W 095°17'0 0.0
2018-Feb-14 18:17N 29°45' W 095°17'0 0.0
2018-Feb-14 17:56N 29°45' W 095°17'0 0.0
2018-Feb-14 17:29N 29°45' W 095°17'0 0.0
2018-Feb-14 15:29N 29°45' W 095°17'0 0.0
2018-Feb-14 14:53N 29°45' W 095°17'0 0.0
2018-Feb-14 14:05N 29°45' W 095°17'0 0.1
2018-Feb-14 13:59N 29°45' W 095°17'3 0.1
2018-Feb-13 15:34N 29°43' W 095°14'1 6.2
2018-Feb-13 15:28N 29°43' W 095°13'4 5.5
2018-Feb-13 14:48N 29°44' W 095°09'2 6.4
2018-Feb-13 14:26N 29°45' W 095°06'3 5.5
2018-Feb-13 13:58N 29°44' W 095°03'3 7.6
2018-Feb-13 13:30N 29°42' W 095°00'510.0
2018-Feb-13 13:00N 29°38' W 094°58'611.5
2018-Feb-13 12:30N 29°33' W 094°54'611.9
2018-Feb-13 11:59N 29°27' W 094°51'712.0
2018-Feb-13 11:25N 29°21' W 094°47'511.3
2018-Feb-13 10:59N 29°21' W 094°42'611.7
2018-Feb-13 10:30N 29°18' W 094°36'6 7.1
2018-Feb-13 09:38N 29°14' W 094°30'214.0
2018-Feb-13 09:28N 29°13' W 094°28'12 6.2
2018-Feb-13 07:35N 29°06' W 094°17'114.3
2018-Feb-13 07:30N 29°06' W 094°16'  
Track history (hours):
 
Tides and Currents Weather Stations Pressure Air Temp Water Temp Dewpoint Dewpoint Depression Visibility Wind Speed Wind Dir Waves Ship Positions

Meloi

Last reported at 2018-Feb-23 05:55 UTC. Time now 2018-Apr-23 11:54 UTC.
Position N 29°06' W 093°38'.
Warning: this ship's position is 59 days out of date.

Length 180 m; draft 9.3 m.

Type: Cargo ship. MMSI: 351132000.

Date/timePositionNaut miles runAvg speedWind from/ knotsBaromVisibWave heightAir tempDewpointWater temp
2018-Feb-23 05:55N 29°06' W 093°38'510.9
2018-Feb-23 05:30N 29°10' W 093°40'711.2
2018-Feb-23 04:54N 29°17' W 093°40'411.2
2018-Feb-23 04:30N 29°21' W 093°40'610.2
2018-Feb-23 03:57N 29°27' W 093°40'4 9.6
2018-Feb-23 03:30N 29°31' W 093°42'510.5
2018-Feb-23 03:00N 29°34' W 093°46'4 7.1
2018-Feb-23 02:30N 29°37' W 093°49'5 9.7
2018-Feb-23 02:00N 29°42' W 093°51'4 8.3
2018-Feb-23 01:31N 29°45' W 093°53'4 8.4
2018-Feb-23 01:00N 29°48' W 093°57'4 7.2
2018-Feb-23 00:30N 29°51' W 093°57'4 7.4
2018-Feb-23 00:00N 29°54' W 093°54'3 6.4
2018-Feb-22 23:30N 29°57' W 093°52'2 4.9
2018-Feb-22 23:00N 29°59' W 093°53'0 0.1
2018-Feb-22 22:30N 29°59' W 093°53'0 0.0
2018-Feb-22 22:00N 29°59' W 093°53'0 0.0
2018-Feb-22 21:30N 29°59' W 093°53'0 0.0
2018-Feb-22 21:00N 29°59' W 093°53'0 0.0
2018-Feb-22 20:30N 29°59' W 093°53'0 0.0
2018-Feb-22 20:00N 29°59' W 093°53'0 0.0
2018-Feb-22 19:30N 29°59' W 093°53'0 0.0
2018-Feb-22 19:00N 29°59' W 093°53'0 0.0
2018-Feb-22 18:30N 29°59' W 093°53'0 0.0
2018-Feb-22 18:00N 29°59' W 093°53'0 0.0
2018-Feb-22 17:30N 29°59' W 093°53'0 0.0
2018-Feb-22 17:00N 29°59' W 093°53'0 0.0
2018-Feb-22 16:30N 29°59' W 093°53'0 0.0
2018-Feb-22 16:00N 29°59' W 093°53'0 0.0
2018-Feb-22 15:30N 29°59' W 093°53'0 0.0
2018-Feb-22 15:00N 29°59' W 093°53'0 0.0
2018-Feb-22 14:30N 29°59' W 093°53'0 0.0
2018-Feb-22 14:00N 29°59' W 093°53'0 0.0
2018-Feb-22 13:30N 29°59' W 093°53'0 0.0
2018-Feb-22 13:00N 29°59' W 093°53'0 0.0
2018-Feb-22 12:30N 29°59' W 093°53'0 0.0
2018-Feb-22 12:00N 29°59' W 093°53'0 0.0
2018-Feb-22 11:30N 29°59' W 093°53'0 0.0
2018-Feb-22 11:00N 29°59' W 093°53'0 0.0
2018-Feb-22 10:30N 29°59' W 093°53'0 0.0
2018-Feb-22 10:00N 29°59' W 093°53'0 0.0
2018-Feb-22 09:30N 29°59' W 093°53'0 0.0
2018-Feb-22 09:00N 29°59' W 093°53'0 0.0
2018-Feb-22 08:30N 29°59' W 093°53'0 0.0
2018-Feb-22 08:00N 29°59' W 093°53'0 0.0
2018-Feb-22 07:30N 29°59' W 093°53'0 0.0
2018-Feb-22 07:00N 29°59' W 093°53'0 0.0
2018-Feb-22 06:30N 29°59' W 093°53'0 0.0
2018-Feb-22 06:00N 29°59' W 093°53'0 0.0
2018-Feb-22 05:30N 29°59' W 093°53'0 0.0
2018-Feb-22 05:00N 29°59' W 093°53'0 0.0
2018-Feb-22 04:30N 29°59' W 093°53'0 0.0
2018-Feb-22 04:00N 29°59' W 093°53'0 0.0
2018-Feb-22 03:30N 29°59' W 093°53'0 0.0
2018-Feb-22 03:00N 29°59' W 093°53'0 0.0
2018-Feb-22 02:27N 29°59' W 093°53'0 0.0
2018-Feb-22 02:00N 29°59' W 093°53'0 0.0
2018-Feb-22 01:30N 29°59' W 093°53'0 0.0
2018-Feb-22 01:00N 29°59' W 093°53'0 0.0
2018-Feb-22 00:30N 29°59' W 093°53'0 0.0
2018-Feb-22 00:00N 29°59' W 093°53'0 0.0
2018-Feb-21 23:30N 29°59' W 093°53'0 0.0
2018-Feb-21 23:00N 29°59' W 093°53'0 0.0
2018-Feb-21 22:30N 29°59' W 093°53'0 0.0
2018-Feb-21 22:00N 29°59' W 093°53'0 0.0
2018-Feb-21 21:30N 29°59' W 093°53'0 0.0
2018-Feb-21 21:00N 29°59' W 093°53'0 0.0
2018-Feb-21 20:30N 29°59' W 093°53'0 0.0
2018-Feb-21 20:00N 29°59' W 093°53'0 0.0
2018-Feb-21 19:30N 29°59' W 093°53'0 0.0
2018-Feb-21 19:00N 29°59' W 093°53'0 0.0
2018-Feb-21 18:30N 29°59' W 093°53'0 0.0
2018-Feb-21 18:00N 29°59' W 093°53'0 0.0
2018-Feb-21 17:30N 29°59' W 093°53'0 0.0
2018-Feb-21 17:00N 29°59' W 093°53'0 0.0
2018-Feb-21 16:30N 29°59' W 093°53'0 0.0
2018-Feb-21 16:00N 29°59' W 093°53'0 0.0
2018-Feb-21 15:30N 29°59' W 093°53'0 0.0
2018-Feb-21 15:00N 29°59' W 093°53'0 0.0
2018-Feb-21 14:30N 29°59' W 093°53'0 0.0
2018-Feb-21 14:00N 29°59' W 093°53'0 0.0
2018-Feb-21 13:30N 29°59' W 093°53'0 0.0
2018-Feb-21 13:00N 29°59' W 093°53'0 0.0
2018-Feb-21 12:30N 29°59' W 093°53'0 0.0
2018-Feb-21 12:00N 29°59' W 093°53'0 0.0
2018-Feb-21 11:30N 29°59' W 093°53'0 0.0
2018-Feb-21 11:00N 29°59' W 093°53'0 0.0
2018-Feb-21 10:30N 29°59' W 093°53'0 0.0
2018-Feb-21 10:00N 29°59' W 093°53'0 0.0
2018-Feb-21 09:30N 29°59' W 093°53'0 0.0
2018-Feb-21 09:00N 29°59' W 093°53'0 0.0
2018-Feb-21 08:30N 29°59' W 093°53'0 0.0
2018-Feb-21 08:00N 29°59' W 093°53'0 0.0
2018-Feb-21 07:30N 29°59' W 093°53'0 0.0
2018-Feb-21 07:00N 29°59' W 093°53'0 0.0
2018-Feb-21 06:30N 29°59' W 093°53'0 0.0
2018-Feb-21 06:00N 29°59' W 093°53'0 0.0
2018-Feb-21 05:30N 29°59' W 093°53'0 0.0
2018-Feb-21 05:00N 29°59' W 093°53'0 0.0
2018-Feb-21 04:30N 29°59' W 093°53'0 0.0
2018-Feb-21 04:00N 29°59' W 093°53'0 0.0
2018-Feb-21 03:27N 29°59' W 093°53'0 0.0
2018-Feb-21 03:00N 29°59' W 093°53'0 0.0
2018-Feb-21 02:27N 29°59' W 093°53'0 0.0
2018-Feb-21 02:00N 29°59' W 093°53'0 0.0
2018-Feb-21 01:30N 29°59' W 093°53'0 0.0
2018-Feb-21 01:00N 29°59' W 093°53'0 0.0
2018-Feb-21 00:30N 29°59' W 093°53'0 0.0
2018-Feb-21 00:00N 29°59' W 093°53'0 0.0
2018-Feb-20 23:30N 29°59' W 093°53'0 0.0
2018-Feb-20 23:00N 29°59' W 093°53'0 0.0
2018-Feb-20 22:30N 29°59' W 093°53'0 0.0
2018-Feb-20 22:00N 29°59' W 093°53'0 0.0
2018-Feb-20 21:30N 29°59' W 093°53'0 0.1
2018-Feb-20 21:00N 29°59' W 093°53'0 0.1
2018-Feb-20 20:30N 29°59' W 093°53'0 0.0
2018-Feb-20 20:00N 29°59' W 093°53'0 0.0
2018-Feb-20 19:30N 29°59' W 093°53'0 0.0
2018-Feb-20 19:00N 29°59' W 093°53'0 0.0
2018-Feb-20 18:30N 29°59' W 093°53'0 0.0
2018-Feb-20 18:00N 29°59' W 093°53'0 0.0
2018-Feb-20 17:30N 29°59' W 093°53'0 0.0
2018-Feb-20 17:00N 29°59' W 093°53'0 0.0
2018-Feb-20 16:30N 29°59' W 093°53'0 0.0
2018-Feb-20 16:00N 29°59' W 093°53'0 0.0
2018-Feb-20 15:30N 29°59' W 093°53'0 0.1
2018-Feb-20 15:00N 29°59' W 093°53'0 0.1
2018-Feb-20 14:30N 29°59' W 093°53'0 0.0
2018-Feb-20 14:00N 29°59' W 093°53'0 0.0
2018-Feb-20 13:30N 29°59' W 093°53'0 0.0
2018-Feb-20 13:00N 29°59' W 093°53'0 0.0
2018-Feb-20 12:30N 29°59' W 093°53'0 0.0
2018-Feb-20 12:00N 29°59' W 093°53'0 0.0
2018-Feb-20 11:30N 29°59' W 093°53'0 0.0
2018-Feb-20 11:00N 29°59' W 093°53'0 0.0
2018-Feb-20 10:30N 29°59' W 093°53'0 0.0
2018-Feb-20 10:00N 29°59' W 093°53'0 0.0
2018-Feb-20 09:30N 29°59' W 093°53'0 0.0
2018-Feb-20 09:00N 29°59' W 093°53'0 0.0
2018-Feb-20 08:30N 29°59' W 093°53'0 0.0
2018-Feb-20 08:00N 29°59' W 093°53'0 0.0
2018-Feb-20 07:30N 29°59' W 093°53'0 0.0
2018-Feb-20 07:00N 29°59' W 093°53'0 0.2
2018-Feb-20 06:31N 29°59' W 093°53'2 4.5
2018-Feb-20 06:00N 29°57' W 093°52'4 7.2
2018-Feb-20 05:30N 29°54' W 093°54'4 8.2
2018-Feb-20 05:00N 29°51' W 093°57'4 7.4
2018-Feb-20 04:31N 29°47' W 093°57'4 8.5
2018-Feb-20 04:00N 29°45' W 093°53'4 7.5
2018-Feb-20 03:30N 29°42' W 093°50'510.8
2018-Feb-20 03:00N 29°36' W 093°48'713.0
2018-Feb-20 02:30N 29°32' W 093°43'612.3
2018-Feb-20 02:01N 29°27' W 093°40'3 6.2
2018-Feb-20 01:28N 29°24' W 093°42'1 1.9
2018-Feb-20 00:58N 29°25' W 093°43'0 0.0
2018-Feb-20 00:19N 29°25' W 093°43'0 0.0
2018-Feb-19 22:37N 29°25' W 093°43'0 0.0
2018-Feb-19 22:28N 29°25' W 093°43'0 0.0
2018-Feb-19 20:28N 29°25' W 093°43'0 0.0
2018-Feb-19 19:55N 29°25' W 093°43'0 0.0
2018-Feb-19 18:37N 29°25' W 093°43'0 0.0
2018-Feb-19 18:22N 29°25' W 093°43'0 0.0
2018-Feb-19 17:55N 29°25' W 093°43'0 0.0
2018-Feb-19 17:28N 29°25' W 093°43'0 0.0
2018-Feb-19 16:58N 29°25' W 093°43'0 0.0
2018-Feb-19 16:25N 29°25' W 093°43'0 0.0
2018-Feb-19 15:58N 29°25' W 093°43'0 0.0
2018-Feb-19 15:28N 29°25' W 093°43'0 0.0
2018-Feb-19 14:58N 29°25' W 093°43'0 0.0
2018-Feb-19 14:28N 29°25' W 093°43'0 0.0
2018-Feb-19 13:58N 29°25' W 093°43'0 0.0
2018-Feb-19 13:28N 29°25' W 093°43'0 0.0
2018-Feb-19 12:58N 29°25' W 093°43'0 0.0
2018-Feb-19 12:28N 29°25' W 093°43'0 0.0
2018-Feb-19 11:55N 29°25' W 093°43'0 0.0
2018-Feb-19 11:28N 29°25' W 093°43'0 0.0
2018-Feb-19 10:55N 29°25' W 093°43'0 0.0
2018-Feb-19 10:28N 29°25' W 093°43'0 0.0
2018-Feb-19 09:49N 29°25' W 093°43'0 0.0
2018-Feb-19 09:28N 29°25' W 093°43'0 0.0
2018-Feb-19 08:49N 29°25' W 093°43'0 0.0
2018-Feb-19 08:25N 29°25' W 093°43'0 0.0
2018-Feb-19 07:58N 29°25' W 093°43'0 0.0
2018-Feb-19 07:28N 29°25' W 093°43'0 0.0
2018-Feb-19 06:55N 29°25' W 093°43'0 0.0
2018-Feb-19 06:28N 29°25' W 093°43'0 0.0
2018-Feb-19 05:16N 29°25' W 093°43'0 0.0
2018-Feb-19 04:07N 29°25' W 093°43'0 0.0
2018-Feb-19 03:52N 29°25' W 093°43'0 0.0
2018-Feb-19 01:10N 29°25' W 093°43'0 0.0
2018-Feb-19 00:40N 29°25' W 093°43'0 0.0
2018-Feb-19 00:25N 29°25' W 093°43'0 0.0
2018-Feb-18 23:55N 29°25' W 093°43'0 0.0
2018-Feb-18 23:28N 29°25' W 093°43'0 0.0
2018-Feb-18 17:22N 29°25' W 093°43'0 0.0
2018-Feb-18 16:55N 29°24' W 093°43'0 0.1
2018-Feb-18 16:16N 29°25' W 093°43'0 0.0
2018-Feb-18 15:40N 29°25' W 093°43'0 0.0
2018-Feb-18 11:10N 29°25' W 093°43'0 0.0
2018-Feb-18 10:40N 29°25' W 093°43'0 0.0
2018-Feb-18 10:13N 29°25' W 093°43'0 0.1
2018-Feb-18 09:58N 29°25' W 093°43'0 0.0
2018-Feb-18 09:25N 29°25' W 093°43'0 0.0
2018-Feb-18 08:58N 29°25' W 093°43'0 0.0
2018-Feb-18 08:28N 29°25' W 093°43'0 0.0
2018-Feb-18 07:58N 29°25' W 093°43'0 0.0
2018-Feb-18 07:28N 29°25' W 093°43'0 0.0
2018-Feb-18 06:58N 29°25' W 093°43'0 0.0
2018-Feb-18 06:28N 29°25' W 093°43'0 0.0
2018-Feb-18 05:58N 29°25' W 093°43'0 0.0
2018-Feb-18 00:41N 29°25' W 093°43'0 0.0
2018-Feb-18 00:23N 29°25' W 093°43'0 0.0
2018-Feb-17 21:05N 29°25' W 093°43'0 0.1
2018-Feb-17 20:59N 29°25' W 093°43'0 0.0
2018-Feb-17 20:29N 29°25' W 093°43'0 0.0
2018-Feb-17 19:59N 29°25' W 093°43'0 0.0
2018-Feb-17 17:47N 29°25' W 093°43'0 0.0
2018-Feb-17 16:50N 29°24' W 093°43'0 0.0
2018-Feb-17 16:26N 29°24' W 093°43'0 0.0
2018-Feb-17 15:29N 29°24' W 093°43'0 0.0
2018-Feb-17 14:56N 29°24' W 093°43'0 0.0
2018-Feb-17 10:23N 29°25' W 093°43'0 0.0
2018-Feb-17 07:47N 29°25' W 093°43'0 0.0
2018-Feb-17 07:23N 29°25' W 093°43'0 0.0
2018-Feb-17 06:50N 29°25' W 093°43'0 0.0
2018-Feb-17 06:17N 29°25' W 093°43'0 0.0
2018-Feb-17 05:08N 29°25' W 093°43'0 0.0
2018-Feb-17 04:38N 29°25' W 093°43'0 0.1
2018-Feb-17 04:29N 29°25' W 093°43'0 0.0
2018-Feb-17 02:05N 29°25' W 093°43'0 0.1
2018-Feb-17 01:59N 29°25' W 093°43'0 0.0
2018-Feb-17 01:23N 29°25' W 093°43'0 0.1
2018-Feb-17 00:47N 29°25' W 093°43'0 0.1
2018-Feb-17 00:29N 29°25' W 093°43'0 0.0
2018-Feb-16 23:59N 29°25' W 093°43'0 0.0
2018-Feb-16 23:20N 29°25' W 093°43'0 0.0
2018-Feb-16 22:50N 29°25' W 093°43'0 0.0
2018-Feb-16 22:29N 29°25' W 093°43'0 0.0
2018-Feb-16 21:59N 29°25' W 093°43'0 0.0
2018-Feb-16 21:29N 29°25' W 093°43'0 0.0
2018-Feb-16 18:11N 29°25' W 093°43'0 0.0
2018-Feb-16 17:47N 29°25' W 093°43'0 0.0
2018-Feb-16 17:02N 29°25' W 093°43'0 0.0
2018-Feb-16 16:59N 29°25' W 093°43'0 0.0
2018-Feb-16 16:20N 29°25' W 093°43'0 0.0
2018-Feb-16 15:50N 29°25' W 093°43'0 0.0
2018-Feb-16 15:29N 29°25' W 093°43'0 0.0
2018-Feb-16 14:59N 29°25' W 093°43'7517.6
2018-Feb-16 10:43N 29°45' W 095°06'7536.5
2018-Feb-16 08:40N 29°25' W 093°43'0 0.0
2018-Feb-16 08:30N 29°25' W 093°43'0 0.1
2018-Feb-16 07:45N 29°25' W 093°43'1 2.6
2018-Feb-16 07:24N 29°24' W 093°42'4 9.1
2018-Feb-16 07:00N 29°21' W 093°40'713.9
2018-Feb-16 06:28N 29°14' W 093°39'613.2
2018-Feb-16 06:00N 29°08' W 093°43'713.6
2018-Feb-16 05:30N 29°05' W 093°50'713.4
2018-Feb-16 05:00N 29°05' W 093°57'713.5
2018-Feb-16 04:30N 29°04' W 094°05'713.5
2018-Feb-16 04:00N 29°05' W 094°13'613.0
2018-Feb-16 03:30N 29°06' W 094°20'712.8
2018-Feb-16 03:00N 29°09' W 094°27'713.0
2018-Feb-16 02:29N 29°14' W 094°32'611.7
2018-Feb-16 02:00N 29°18' W 094°37'5 9.2
2018-Feb-16 01:31N 29°20' W 094°41'5 9.2
2018-Feb-16 01:01N 29°21' W 094°46'4 8.2
2018-Feb-16 00:29N 29°24' W 094°49'4 8.3
2018-Feb-16 00:01N 29°28' W 094°51'5 8.8
2018-Feb-15 23:27N 29°32' W 094°54'5 9.3
2018-Feb-15 22:56N 29°36' W 094°57'4 9.2
2018-Feb-15 22:27N 29°40' W 094°59'16 5.6
2018-Feb-15 19:36N 29°44' W 095°17'1 0.3
2018-Feb-15 16:38N 29°45' W 095°17'0 0.0
2018-Feb-15 16:23N 29°45' W 095°17'0 0.0
2018-Feb-15 14:53N 29°45' W 095°17'0 0.0
2018-Feb-15 12:44N 29°45' W 095°17'0 0.0
2018-Feb-15 10:08N 29°45' W 095°17'0 0.0
2018-Feb-15 09:41N 29°45' W 095°17'0 0.0
2018-Feb-15 09:29N 29°45' W 095°17'0 0.0
2018-Feb-15 08:23N 29°45' W 095°17'0 0.0
2018-Feb-15 07:47N 29°45' W 095°17'0 0.0
2018-Feb-15 07:29N 29°45' W 095°17'0 0.0
2018-Feb-15 06:59N 29°45' W 095°17'0 0.0
2018-Feb-15 06:23N 29°45' W 095°17'0 0.0
2018-Feb-15 05:56N 29°45' W 095°17'0 0.0
2018-Feb-15 05:29N 29°45' W 095°17'0 0.0
2018-Feb-15 04:50N 29°45' W 095°17'0 0.0
2018-Feb-15 04:26N 29°45' W 095°17'0 0.0
2018-Feb-15 03:59N 29°45' W 095°17'0 0.0
2018-Feb-15 03:20N 29°45' W 095°17'0 0.0
2018-Feb-15 02:56N 29°45' W 095°17'0 0.0
2018-Feb-15 02:23N 29°45' W 095°17'0 0.0
2018-Feb-14 22:11N 29°45' W 095°17'0 0.0
2018-Feb-14 21:59N 29°45' W 095°17'0 0.0
2018-Feb-14 21:29N 29°45' W 095°17'0 0.0
2018-Feb-14 18:47N 29°45' W 095°17'0 0.0
2018-Feb-14 18:17N 29°45' W 095°17'0 0.0
2018-Feb-14 17:56N 29°45' W 095°17'0 0.0
2018-Feb-14 17:29N 29°45' W 095°17'0 0.0
2018-Feb-14 15:29N 29°45' W 095°17'0 0.0
2018-Feb-14 14:53N 29°45' W 095°17'0 0.0
2018-Feb-14 14:05N 29°45' W 095°17'0 0.1
2018-Feb-14 13:59N 29°45' W 095°17'3 0.1
2018-Feb-13 15:34N 29°43' W 095°14'1 6.2
2018-Feb-13 15:28N 29°43' W 095°13'4 5.5
2018-Feb-13 14:48N 29°44' W 095°09'2 6.4
2018-Feb-13 14:26N 29°45' W 095°06'3 5.5
2018-Feb-13 13:58N 29°44' W 095°03'3 7.6
2018-Feb-13 13:30N 29°42' W 095°00'510.0
2018-Feb-13 13:00N 29°38' W 094°58'611.5
2018-Feb-13 12:30N 29°33' W 094°54'611.9
2018-Feb-13 11:59N 29°27' W 094°51'712.0
2018-Feb-13 11:25N 29°21' W 094°47'511.3
2018-Feb-13 10:59N 29°21' W 094°42'611.7
2018-Feb-13 10:30N 29°18' W 094°36'6 7.1
2018-Feb-13 09:38N 29°14' W 094°30'214.0
2018-Feb-13 09:28N 29°13' W 094°28'12 6.2
2018-Feb-13 07:35N 29°06' W 094°17'114.3
2018-Feb-13 07:30N 29°06' W 094°16'  

Dump ship's entire track history